EIN764 EICK-LEBB
Flight info
| Callsign | EIN764 |
|---|---|
| Flight time | 1h 27m |
| Altitude | 37000 |
| Route | ERTER1S ERTER DCT LESLU DCT ADRUD DCT GATMO DCT NENEM DCT MAPAX |
| Aircraft | A320/M-SDE3FGHIRWY/LB1 |
Departure
| Time | 2026-05-06 19:49 |
|---|---|
| Airport | Cork International Airport (EICK) |
Arrival
| Time | 2026-05-06 21:16 |
|---|---|
| Airport | Bilbao Airport (LEBB) |
| Time | Latitude | Longitude | Altitude | Speed | Heading |
|---|---|---|---|---|---|
| 2026-05-06 19:22 | 51.84848 | -8.49050 | 503 ft | 0 kts | 70° |
| 2026-05-06 19:43 | 51.84848 | -8.49051 | 503 ft | 2 kts | 70° |
| 2026-05-06 19:43 | 51.84839 | -8.49088 | 503 ft | 4 kts | 66° |
| 2026-05-06 19:43 | 51.84828 | -8.49128 | 503 ft | 4 kts | 62° |
| 2026-05-06 19:44 | 51.84818 | -8.49158 | 503 ft | 4 kts | 59° |
| 2026-05-06 19:44 | 51.84801 | -8.49189 | 504 ft | 4 kts | 22° |
| 2026-05-06 19:44 | 51.84779 | -8.49200 | 503 ft | 4 kts | 8° |
| 2026-05-06 19:44 | 51.84771 | -8.49201 | 503 ft | 0 kts | 349° |
| 2026-05-06 19:46 | 51.84772 | -8.49201 | 503 ft | 4 kts | 349° |
| 2026-05-06 19:46 | 51.84853 | -8.49229 | 503 ft | 14 kts | 344° |
| 2026-05-06 19:47 | 51.84940 | -8.49272 | 503 ft | 12 kts | 349° |
| 2026-05-06 19:47 | 51.85015 | -8.49309 | 503 ft | 10 kts | 340° |
| 2026-05-06 19:47 | 51.85078 | -8.49347 | 503 ft | 9 kts | 340° |
| 2026-05-06 19:47 | 51.85130 | -8.49385 | 503 ft | 8 kts | 320° |
| 2026-05-06 19:48 | 51.85138 | -8.49474 | 491 ft | 11 kts | 244° |
| 2026-05-06 19:48 | 51.85062 | -8.49544 | 488 ft | 16 kts | 201° |
| 2026-05-06 19:48 | 51.84947 | -8.49592 | 489 ft | 16 kts | 165° |
| 2026-05-06 19:48 | 51.84919 | -8.49575 | 485 ft | 0 kts | 159° |
| 2026-05-06 19:49 | 51.84859 | -8.49539 | 482 ft | 37 kts | 160° |
| 2026-05-06 19:49 | 51.84367 | -8.49248 | 486 ft | 112 kts | 160° |
| 2026-05-06 19:49 | 51.83449 | -8.48708 | 592 ft | 154 kts | 160° |
| 2026-05-06 19:49 | 51.82493 | -8.48143 | 1467 ft | 142 kts | 158° |
| 2026-05-06 19:50 | 51.81623 | -8.47377 | 2036 ft | 152 kts | 150° |
| 2026-05-06 19:50 | 51.80663 | -8.46401 | 2373 ft | 174 kts | 157° |
| 2026-05-06 19:50 | 51.79432 | -8.45768 | 2604 ft | 198 kts | 164° |
| 2026-05-06 19:50 | 51.78147 | -8.44669 | 2873 ft | 224 kts | 140° |
| 2026-05-06 19:51 | 51.77110 | -8.42601 | 3226 ft | 250 kts | 128° |
| 2026-05-06 19:51 | 51.75963 | -8.40399 | 3906 ft | 260 kts | 134° |
| 2026-05-06 19:51 | 51.74717 | -8.38263 | 4798 ft | 263 kts | 135° |
| 2026-05-06 19:51 | 51.73441 | -8.36130 | 5703 ft | 265 kts | 135° |
| 2026-05-06 19:52 | 51.72172 | -8.33999 | 6565 ft | 268 kts | 134° |
| 2026-05-06 19:52 | 51.70880 | -8.31796 | 7371 ft | 272 kts | 134° |
| 2026-05-06 19:52 | 51.69578 | -8.29544 | 8144 ft | 278 kts | 134° |
| 2026-05-06 19:52 | 51.68252 | -8.27227 | 8906 ft | 283 kts | 133° |
| 2026-05-06 19:53 | 51.66908 | -8.24859 | 9689 ft | 289 kts | 133° |
| 2026-05-06 19:53 | 51.65539 | -8.22447 | 10335 ft | 298 kts | 134° |
| 2026-05-06 19:53 | 51.64084 | -8.19892 | 10551 ft | 321 kts | 134° |
| 2026-05-06 19:53 | 51.62543 | -8.17184 | 11027 ft | 333 kts | 133° |
| 2026-05-06 19:54 | 51.60967 | -8.14412 | 11712 ft | 338 kts | 133° |
| 2026-05-06 19:54 | 51.59374 | -8.11607 | 12416 ft | 342 kts | 133° |
| 2026-05-06 19:54 | 51.57638 | -8.08976 | 13105 ft | 345 kts | 145° |
| 2026-05-06 19:54 | 51.55574 | -8.07006 | 13784 ft | 347 kts | 157° |
| 2026-05-06 19:55 | 51.53272 | -8.05827 | 14405 ft | 349 kts | 170° |
| 2026-05-06 19:55 | 51.50852 | -8.05417 | 15016 ft | 352 kts | 177° |
| 2026-05-06 19:55 | 51.48428 | -8.05168 | 15639 ft | 354 kts | 177° |
| 2026-05-06 19:55 | 51.45924 | -8.04908 | 16267 ft | 358 kts | 178° |
| 2026-05-06 19:56 | 51.43429 | -8.04646 | 16882 ft | 361 kts | 178° |
| 2026-05-06 19:56 | 51.40942 | -8.04382 | 17480 ft | 364 kts | 178° |
| 2026-05-06 19:56 | 51.38394 | -8.04108 | 18087 ft | 368 kts | 178° |
| 2026-05-06 19:56 | 51.35830 | -8.03829 | 18630 ft | 371 kts | 178° |
| 2026-05-06 19:57 | 51.33244 | -8.03549 | 19147 ft | 374 kts | 178° |
| 2026-05-06 19:57 | 51.30631 | -8.03269 | 19672 ft | 377 kts | 178° |
| 2026-05-06 19:57 | 51.28000 | -8.02988 | 20187 ft | 381 kts | 178° |
| 2026-05-06 19:57 | 51.25346 | -8.02705 | 20708 ft | 384 kts | 178° |
| 2026-05-06 19:58 | 51.22673 | -8.02424 | 21226 ft | 387 kts | 178° |
| 2026-05-06 19:58 | 51.19974 | -8.02138 | 21741 ft | 390 kts | 178° |
| 2026-05-06 19:58 | 51.17254 | -8.01845 | 22255 ft | 393 kts | 178° |
| 2026-05-06 19:58 | 51.14515 | -8.01546 | 22769 ft | 396 kts | 178° |
| 2026-05-06 19:59 | 51.11747 | -8.01247 | 23268 ft | 400 kts | 178° |
| 2026-05-06 19:59 | 51.08957 | -8.00950 | 23723 ft | 403 kts | 178° |
| 2026-05-06 19:59 | 51.06148 | -8.00652 | 24130 ft | 406 kts | 178° |
| 2026-05-06 19:59 | 51.03325 | -8.00347 | 24537 ft | 408 kts | 176° |
| 2026-05-06 20:00 | 51.00548 | -7.99586 | 24921 ft | 412 kts | 166° |
| 2026-05-06 20:00 | 50.97839 | -7.98044 | 25299 ft | 417 kts | 156° |
| 2026-05-06 20:00 | 50.95279 | -7.95850 | 25673 ft | 420 kts | 152° |
| 2026-05-06 20:00 | 50.92731 | -7.93573 | 26049 ft | 422 kts | 152° |
| 2026-05-06 20:01 | 50.90164 | -7.91295 | 26424 ft | 424 kts | 152° |
| 2026-05-06 20:01 | 50.87582 | -7.89019 | 26793 ft | 426 kts | 152° |
| 2026-05-06 20:01 | 50.84982 | -7.86737 | 27148 ft | 428 kts | 152° |
| 2026-05-06 20:01 | 50.82375 | -7.84453 | 27505 ft | 430 kts | 152° |
| 2026-05-06 20:02 | 50.79748 | -7.82148 | 27847 ft | 432 kts | 152° |
| 2026-05-06 20:02 | 50.77113 | -7.79834 | 28186 ft | 434 kts | 151° |
| 2026-05-06 20:02 | 50.74460 | -7.77509 | 28512 ft | 437 kts | 151° |
| 2026-05-06 20:02 | 50.71800 | -7.75183 | 28828 ft | 439 kts | 151° |
| 2026-05-06 20:03 | 50.69121 | -7.72843 | 29143 ft | 441 kts | 151° |
| 2026-05-06 20:03 | 50.66432 | -7.70498 | 29470 ft | 443 kts | 151° |
| 2026-05-06 20:03 | 50.63731 | -7.68146 | 29780 ft | 445 kts | 151° |
| 2026-05-06 20:03 | 50.61018 | -7.65785 | 30068 ft | 446 kts | 152° |
| 2026-05-06 20:04 | 50.58296 | -7.63420 | 30335 ft | 448 kts | 152° |
| 2026-05-06 20:04 | 50.55558 | -7.61045 | 30585 ft | 449 kts | 152° |
| 2026-05-06 20:04 | 50.52813 | -7.58666 | 30819 ft | 451 kts | 152° |
| 2026-05-06 20:04 | 50.50065 | -7.56292 | 31041 ft | 452 kts | 152° |
| 2026-05-06 20:05 | 50.47301 | -7.53905 | 31278 ft | 453 kts | 152° |
| 2026-05-06 20:05 | 50.44539 | -7.51520 | 31582 ft | 453 kts | 152° |
| 2026-05-06 20:05 | 50.41780 | -7.49142 | 31896 ft | 452 kts | 152° |
| 2026-05-06 20:05 | 50.39026 | -7.46774 | 32199 ft | 451 kts | 152° |
| 2026-05-06 20:06 | 50.36276 | -7.44414 | 32513 ft | 451 kts | 152° |
| 2026-05-06 20:06 | 50.33531 | -7.42062 | 32827 ft | 450 kts | 152° |
| 2026-05-06 20:06 | 50.30788 | -7.39709 | 33127 ft | 449 kts | 152° |
| 2026-05-06 20:06 | 50.28050 | -7.37360 | 33437 ft | 449 kts | 152° |
| 2026-05-06 20:07 | 50.25311 | -7.35016 | 33728 ft | 449 kts | 152° |
| 2026-05-06 20:07 | 50.22565 | -7.32669 | 34024 ft | 448 kts | 152° |
| 2026-05-06 20:07 | 50.19865 | -7.30368 | 34271 ft | 448 kts | 152° |
| 2026-05-06 20:07 | 50.17132 | -7.28043 | 34517 ft | 447 kts | 152° |
| 2026-05-06 20:08 | 50.14401 | -7.25720 | 34757 ft | 447 kts | 152° |
| 2026-05-06 20:08 | 50.11669 | -7.23398 | 34974 ft | 447 kts | 152° |
| 2026-05-06 20:08 | 50.08941 | -7.21082 | 35181 ft | 447 kts | 152° |
| 2026-05-06 20:08 | 50.06208 | -7.18770 | 35381 ft | 447 kts | 152° |
| 2026-05-06 20:09 | 50.03473 | -7.16460 | 35578 ft | 447 kts | 152° |
| 2026-05-06 20:09 | 50.00734 | -7.14144 | 35776 ft | 447 kts | 152° |
| 2026-05-06 20:09 | 49.98000 | -7.11836 | 35961 ft | 448 kts | 152° |
| 2026-05-06 20:09 | 49.95260 | -7.09529 | 36149 ft | 447 kts | 153° |
| 2026-05-06 20:10 | 49.92522 | -7.07224 | 36336 ft | 447 kts | 152° |
| 2026-05-06 20:10 | 49.89787 | -7.04923 | 36511 ft | 447 kts | 152° |
| 2026-05-06 20:10 | 49.87049 | -7.02622 | 36683 ft | 448 kts | 152° |
| 2026-05-06 20:10 | 49.84312 | -7.00325 | 36849 ft | 448 kts | 152° |
| 2026-05-06 20:11 | 49.81575 | -6.98029 | 37004 ft | 448 kts | 152° |
| 2026-05-06 20:11 | 49.78837 | -6.95736 | 37032 ft | 447 kts | 152° |
| 2026-05-06 20:11 | 49.73372 | -6.91173 | 37030 ft | 446 kts | 153° |
| 2026-05-06 20:12 | 49.67916 | -6.86629 | 37030 ft | 445 kts | 153° |
| 2026-05-06 20:12 | 49.62459 | -6.82105 | 37030 ft | 445 kts | 153° |
| 2026-05-06 20:13 | 49.56993 | -6.77590 | 37030 ft | 445 kts | 153° |
| 2026-05-06 20:13 | 49.51557 | -6.73110 | 37028 ft | 445 kts | 153° |
| 2026-05-06 20:14 | 49.46094 | -6.68598 | 37032 ft | 446 kts | 153° |
| 2026-05-06 20:14 | 49.40624 | -6.64094 | 37033 ft | 446 kts | 153° |
| 2026-05-06 20:15 | 49.36037 | -6.60338 | 37033 ft | 446 kts | 153° |
| 2026-05-06 20:15 | 49.30592 | -6.55885 | 37034 ft | 446 kts | 153° |
| 2026-05-06 20:16 | 49.25110 | -6.51421 | 37045 ft | 446 kts | 153° |
| 2026-05-06 20:16 | 49.19626 | -6.46974 | 37041 ft | 446 kts | 153° |
| 2026-05-06 20:17 | 49.14177 | -6.42423 | 37041 ft | 446 kts | 150° |
| 2026-05-06 20:17 | 49.08891 | -6.37443 | 37041 ft | 447 kts | 148° |
| 2026-05-06 20:18 | 49.03646 | -6.32357 | 37036 ft | 447 kts | 149° |
| 2026-05-06 20:18 | 48.98355 | -6.27366 | 37041 ft | 447 kts | 149° |
| 2026-05-06 20:19 | 48.93039 | -6.22461 | 37045 ft | 447 kts | 150° |
| 2026-05-06 20:19 | 48.87721 | -6.17570 | 37042 ft | 446 kts | 150° |
| 2026-05-06 20:20 | 48.82446 | -6.12700 | 37041 ft | 446 kts | 150° |
| 2026-05-06 20:20 | 48.77132 | -6.07802 | 37040 ft | 447 kts | 150° |
| 2026-05-06 20:21 | 48.71817 | -6.02922 | 37041 ft | 447 kts | 150° |
| 2026-05-06 20:21 | 48.66502 | -5.98043 | 37041 ft | 447 kts | 150° |
| 2026-05-06 20:22 | 48.61181 | -5.93170 | 37044 ft | 447 kts | 150° |
| 2026-05-06 20:22 | 48.55885 | -5.88344 | 37043 ft | 447 kts | 150° |
| 2026-05-06 20:23 | 48.50558 | -5.83507 | 37037 ft | 447 kts | 150° |
| 2026-05-06 20:23 | 48.45230 | -5.78666 | 37034 ft | 447 kts | 150° |
| 2026-05-06 20:24 | 48.39908 | -5.73846 | 37041 ft | 447 kts | 150° |
| 2026-05-06 20:24 | 48.34580 | -5.69042 | 37046 ft | 446 kts | 150° |
| 2026-05-06 20:25 | 48.29251 | -5.64248 | 37034 ft | 446 kts | 150° |
| 2026-05-06 20:25 | 48.23924 | -5.59456 | 37040 ft | 446 kts | 150° |
| 2026-05-06 20:26 | 48.18592 | -5.54674 | 37038 ft | 446 kts | 150° |
| 2026-05-06 20:26 | 48.13259 | -5.49921 | 37040 ft | 446 kts | 150° |
| 2026-05-06 20:27 | 48.07916 | -5.45156 | 37025 ft | 447 kts | 150° |
| 2026-05-06 20:27 | 48.02580 | -5.40404 | 37028 ft | 447 kts | 150° |
| 2026-05-06 20:28 | 47.97237 | -5.35664 | 37032 ft | 447 kts | 151° |
| 2026-05-06 20:28 | 47.91887 | -5.30930 | 37029 ft | 447 kts | 151° |
| 2026-05-06 20:29 | 47.86538 | -5.26209 | 37027 ft | 447 kts | 150° |
| 2026-05-06 20:29 | 47.81183 | -5.21492 | 37033 ft | 447 kts | 151° |
| 2026-05-06 20:30 | 47.73160 | -5.14443 | 37031 ft | 447 kts | 151° |
| 2026-05-06 20:31 | 47.67797 | -5.09749 | 37031 ft | 447 kts | 150° |
| 2026-05-06 20:31 | 47.62462 | -5.05088 | 37029 ft | 450 kts | 151° |
| 2026-05-06 20:32 | 47.57019 | -5.00350 | 37020 ft | 457 kts | 150° |
| 2026-05-06 20:32 | 47.51491 | -4.95550 | 37021 ft | 463 kts | 151° |
| 2026-05-06 20:33 | 47.45906 | -4.90702 | 37023 ft | 468 kts | 150° |
| 2026-05-06 20:33 | 47.40262 | -4.85818 | 37022 ft | 471 kts | 151° |
| 2026-05-06 20:34 | 47.34594 | -4.80923 | 37019 ft | 473 kts | 151° |
| 2026-05-06 20:34 | 47.28913 | -4.76020 | 37023 ft | 473 kts | 151° |
| 2026-05-06 20:35 | 47.23224 | -4.71124 | 37023 ft | 473 kts | 151° |
| 2026-05-06 20:35 | 47.17573 | -4.66296 | 37033 ft | 473 kts | 151° |
| 2026-05-06 20:36 | 47.11874 | -4.61446 | 37042 ft | 473 kts | 151° |
| 2026-05-06 20:36 | 47.06180 | -4.56601 | 37029 ft | 473 kts | 151° |
| 2026-05-06 20:37 | 47.00493 | -4.51760 | 37037 ft | 473 kts | 151° |
| 2026-05-06 20:37 | 46.94791 | -4.46932 | 37033 ft | 473 kts | 151° |
| 2026-05-06 20:38 | 46.89091 | -4.42109 | 37042 ft | 473 kts | 151° |
| 2026-05-06 20:38 | 46.83392 | -4.37298 | 37037 ft | 473 kts | 151° |
| 2026-05-06 20:39 | 46.77683 | -4.32495 | 37037 ft | 473 kts | 151° |
| 2026-05-06 20:39 | 46.71976 | -4.27709 | 37038 ft | 473 kts | 151° |
| 2026-05-06 20:40 | 46.66263 | -4.22923 | 37038 ft | 473 kts | 151° |
| 2026-05-06 20:40 | 46.60559 | -4.18149 | 37037 ft | 473 kts | 152° |
| 2026-05-06 20:41 | 46.54847 | -4.13393 | 37042 ft | 473 kts | 151° |
| 2026-05-06 20:41 | 46.49174 | -4.08687 | 37040 ft | 473 kts | 152° |
| 2026-05-06 20:42 | 46.43461 | -4.03960 | 37043 ft | 473 kts | 152° |
| 2026-05-06 20:42 | 46.37742 | -3.99233 | 37041 ft | 473 kts | 152° |
| 2026-05-06 20:43 | 46.32029 | -3.94511 | 37038 ft | 473 kts | 152° |
| 2026-05-06 20:43 | 46.26316 | -3.89799 | 37031 ft | 473 kts | 152° |
| 2026-05-06 20:44 | 46.20599 | -3.85089 | 37039 ft | 472 kts | 152° |
| 2026-05-06 20:44 | 46.14886 | -3.80410 | 37040 ft | 472 kts | 152° |
| 2026-05-06 20:45 | 46.09162 | -3.75757 | 37034 ft | 472 kts | 152° |
| 2026-05-06 20:45 | 46.03318 | -3.71492 | 37035 ft | 470 kts | 162° |
| 2026-05-06 20:46 | 45.96973 | -3.69342 | 37038 ft | 468 kts | 170° |
| 2026-05-06 20:46 | 45.90590 | -3.67473 | 37032 ft | 469 kts | 170° |
| 2026-05-06 20:47 | 45.84194 | -3.65616 | 37038 ft | 469 kts | 170° |
| 2026-05-06 20:47 | 45.77806 | -3.63758 | 37042 ft | 469 kts | 170° |
| 2026-05-06 20:48 | 45.71410 | -3.61899 | 37038 ft | 469 kts | 170° |
| 2026-05-06 20:48 | 45.65044 | -3.60049 | 37043 ft | 469 kts | 170° |
| 2026-05-06 20:49 | 45.58655 | -3.58195 | 37042 ft | 469 kts | 170° |
| 2026-05-06 20:49 | 45.53130 | -3.56594 | 37044 ft | 469 kts | 170° |
| 2026-05-06 20:50 | 45.47427 | -3.54951 | 37041 ft | 468 kts | 170° |
| 2026-05-06 20:50 | 45.41035 | -3.53119 | 37042 ft | 468 kts | 170° |
| 2026-05-06 20:51 | 45.34642 | -3.51282 | 37048 ft | 468 kts | 170° |
| 2026-05-06 20:51 | 45.28286 | -3.49464 | 37043 ft | 468 kts | 170° |
| 2026-05-06 20:52 | 45.21903 | -3.47643 | 37046 ft | 468 kts | 170° |
| 2026-05-06 20:52 | 45.15520 | -3.45823 | 37047 ft | 468 kts | 170° |
| 2026-05-06 20:53 | 45.09130 | -3.44005 | 37042 ft | 468 kts | 170° |
| 2026-05-06 20:53 | 45.02782 | -3.42201 | 36496 ft | 462 kts | 170° |
| 2026-05-06 20:53 | 44.99630 | -3.41307 | 35558 ft | 459 kts | 171° |
| 2026-05-06 20:54 | 44.96514 | -3.40429 | 34709 ft | 451 kts | 171° |
| 2026-05-06 20:54 | 44.93456 | -3.39571 | 34210 ft | 446 kts | 171° |
| 2026-05-06 20:54 | 44.90425 | -3.38717 | 33624 ft | 442 kts | 171° |
| 2026-05-06 20:54 | 44.87465 | -3.37880 | 33109 ft | 437 kts | 170° |
| 2026-05-06 20:55 | 44.84502 | -3.37043 | 32586 ft | 431 kts | 170° |
| 2026-05-06 20:55 | 44.81574 | -3.36218 | 32073 ft | 427 kts | 170° |
| 2026-05-06 20:55 | 44.78671 | -3.35401 | 31564 ft | 423 kts | 170° |
| 2026-05-06 20:55 | 44.75801 | -3.34592 | 31063 ft | 419 kts | 170° |
| 2026-05-06 20:56 | 44.72961 | -3.33798 | 30583 ft | 415 kts | 170° |
| 2026-05-06 20:56 | 44.70138 | -3.33016 | 30112 ft | 411 kts | 170° |
| 2026-05-06 20:56 | 44.67345 | -3.32241 | 29596 ft | 407 kts | 170° |
| 2026-05-06 20:56 | 44.64589 | -3.31470 | 29144 ft | 401 kts | 170° |
| 2026-05-06 20:57 | 44.61869 | -3.30705 | 28706 ft | 396 kts | 170° |
| 2026-05-06 20:57 | 44.59180 | -3.29953 | 28267 ft | 391 kts | 170° |
| 2026-05-06 20:57 | 44.56520 | -3.29215 | 27833 ft | 387 kts | 170° |
| 2026-05-06 20:57 | 44.53896 | -3.28490 | 27406 ft | 383 kts | 170° |
| 2026-05-06 20:58 | 44.51296 | -3.27768 | 26971 ft | 379 kts | 170° |
| 2026-05-06 20:58 | 44.48748 | -3.27060 | 26542 ft | 376 kts | 170° |
| 2026-05-06 20:58 | 44.46190 | -3.26346 | 26109 ft | 373 kts | 170° |
| 2026-05-06 20:58 | 44.43649 | -3.25634 | 25661 ft | 370 kts | 170° |
| 2026-05-06 20:59 | 44.41983 | -3.25166 | 25369 ft | 369 kts | 170° |
| 2026-05-06 20:59 | 44.39473 | -3.24467 | 24909 ft | 366 kts | 170° |
| 2026-05-06 20:59 | 44.36974 | -3.23774 | 24447 ft | 365 kts | 170° |
| 2026-05-06 20:59 | 44.34496 | -3.23090 | 23994 ft | 363 kts | 170° |
| 2026-05-06 21:00 | 44.32023 | -3.22412 | 23523 ft | 361 kts | 170° |
| 2026-05-06 21:00 | 44.29562 | -3.21736 | 23024 ft | 359 kts | 170° |
| 2026-05-06 21:00 | 44.27122 | -3.21067 | 22574 ft | 356 kts | 170° |
| 2026-05-06 21:00 | 44.24703 | -3.20403 | 22128 ft | 353 kts | 170° |
| 2026-05-06 21:01 | 44.22307 | -3.19744 | 21697 ft | 350 kts | 170° |
| 2026-05-06 21:01 | 44.19925 | -3.19089 | 21254 ft | 347 kts | 169° |
| 2026-05-06 21:01 | 44.17564 | -3.18437 | 20821 ft | 345 kts | 169° |
| 2026-05-06 21:01 | 44.15215 | -3.17789 | 20399 ft | 343 kts | 169° |
| 2026-05-06 21:02 | 44.12884 | -3.17147 | 19980 ft | 341 kts | 169° |
| 2026-05-06 21:02 | 44.10564 | -3.16509 | 19566 ft | 339 kts | 169° |
| 2026-05-06 21:02 | 44.08254 | -3.15877 | 19151 ft | 337 kts | 169° |
| 2026-05-06 21:02 | 44.05957 | -3.15250 | 18738 ft | 336 kts | 169° |
| 2026-05-06 21:03 | 44.03666 | -3.14621 | 18326 ft | 335 kts | 169° |
| 2026-05-06 21:03 | 44.01415 | -3.13979 | 17885 ft | 333 kts | 169° |
| 2026-05-06 21:03 | 43.99153 | -3.13319 | 17482 ft | 331 kts | 168° |
| 2026-05-06 21:03 | 43.96910 | -3.12659 | 17085 ft | 328 kts | 169° |
| 2026-05-06 21:04 | 43.94683 | -3.12004 | 16698 ft | 326 kts | 169° |
| 2026-05-06 21:04 | 43.92473 | -3.11357 | 16311 ft | 324 kts | 169° |
| 2026-05-06 21:04 | 43.90275 | -3.10715 | 15931 ft | 322 kts | 169° |
| 2026-05-06 21:04 | 43.88086 | -3.10080 | 15553 ft | 320 kts | 169° |
| 2026-05-06 21:05 | 43.85906 | -3.09450 | 15173 ft | 319 kts | 169° |
| 2026-05-06 21:05 | 43.83737 | -3.08825 | 14799 ft | 318 kts | 169° |
| 2026-05-06 21:05 | 43.81575 | -3.08204 | 14425 ft | 317 kts | 169° |
| 2026-05-06 21:05 | 43.79413 | -3.07583 | 14049 ft | 316 kts | 169° |
| 2026-05-06 21:06 | 43.77261 | -3.06962 | 13654 ft | 316 kts | 169° |
| 2026-05-06 21:06 | 43.75116 | -3.06345 | 13264 ft | 314 kts | 169° |
| 2026-05-06 21:06 | 43.72982 | -3.05733 | 12879 ft | 312 kts | 169° |
| 2026-05-06 21:06 | 43.70894 | -3.05134 | 12504 ft | 310 kts | 169° |
| 2026-05-06 21:07 | 43.68793 | -3.04530 | 12134 ft | 308 kts | 169° |
| 2026-05-06 21:07 | 43.66701 | -3.03914 | 11753 ft | 306 kts | 169° |
| 2026-05-06 21:07 | 43.64627 | -3.03270 | 11366 ft | 305 kts | 168° |
| 2026-05-06 21:07 | 43.62562 | -3.02613 | 10985 ft | 304 kts | 168° |
| 2026-05-06 21:08 | 43.60508 | -3.01956 | 10587 ft | 303 kts | 168° |
| 2026-05-06 21:08 | 43.58440 | -3.01620 | 10300 ft | 295 kts | 187° |
| 2026-05-06 21:08 | 43.56516 | -3.02363 | 9935 ft | 284 kts | 210° |
| 2026-05-06 21:08 | 43.55029 | -3.04078 | 9279 ft | 277 kts | 235° |
| 2026-05-06 21:09 | 43.54162 | -3.06368 | 8853 ft | 264 kts | 248° |
| 2026-05-06 21:09 | 43.53413 | -3.08619 | 8463 ft | 253 kts | 244° |
| 2026-05-06 21:09 | 43.52573 | -3.10738 | 8079 ft | 253 kts | 240° |
| 2026-05-06 21:09 | 43.51624 | -3.12776 | 7687 ft | 253 kts | 236° |
| 2026-05-06 21:10 | 43.50577 | -3.14712 | 7302 ft | 253 kts | 232° |
| 2026-05-06 21:10 | 43.49432 | -3.16533 | 7057 ft | 247 kts | 225° |
| 2026-05-06 21:10 | 43.48035 | -3.17853 | 6555 ft | 245 kts | 201° |
| 2026-05-06 21:10 | 43.46360 | -3.18304 | 5887 ft | 247 kts | 186° |
| 2026-05-06 21:11 | 43.44665 | -3.18520 | 5230 ft | 249 kts | 185° |
| 2026-05-06 21:11 | 43.42951 | -3.18736 | 4774 ft | 242 kts | 185° |
| 2026-05-06 21:11 | 43.41303 | -3.18698 | 4592 ft | 237 kts | 165° |
| 2026-05-06 21:11 | 43.39903 | -3.17585 | 4285 ft | 232 kts | 130° |
| 2026-05-06 21:12 | 43.39076 | -3.15719 | 3989 ft | 227 kts | 115° |
| 2026-05-06 21:12 | 43.38385 | -3.13775 | 3686 ft | 225 kts | 115° |
| 2026-05-06 21:12 | 43.37703 | -3.11877 | 3380 ft | 216 kts | 115° |
| 2026-05-06 21:12 | 43.37051 | -3.10081 | 3086 ft | 205 kts | 115° |
| 2026-05-06 21:13 | 43.36426 | -3.08363 | 2838 ft | 194 kts | 116° |
| 2026-05-06 21:13 | 43.35841 | -3.06757 | 2548 ft | 183 kts | 115° |
| 2026-05-06 21:13 | 43.35289 | -3.05241 | 2284 ft | 172 kts | 116° |
| 2026-05-06 21:13 | 43.34774 | -3.03829 | 2075 ft | 157 kts | 116° |
| 2026-05-06 21:14 | 43.34302 | -3.02537 | 1846 ft | 147 kts | 116° |
| 2026-05-06 21:14 | 43.33851 | -3.01299 | 1638 ft | 143 kts | 116° |
| 2026-05-06 21:14 | 43.33407 | -3.00083 | 1438 ft | 142 kts | 116° |
| 2026-05-06 21:14 | 43.32967 | -2.98877 | 1217 ft | 141 kts | 116° |
| 2026-05-06 21:15 | 43.32530 | -2.97675 | 1026 ft | 140 kts | 116° |
| 2026-05-06 21:15 | 43.32101 | -2.96493 | 817 ft | 139 kts | 116° |
| 2026-05-06 21:15 | 43.31665 | -2.95315 | 650 ft | 138 kts | 116° |
| 2026-05-06 21:15 | 43.31238 | -2.94140 | 431 ft | 136 kts | 115° |
| 2026-05-06 21:16 | 43.30814 | -2.92981 | 259 ft | 136 kts | 116° |
| 2026-05-06 21:16 | 43.30401 | -2.91849 | 129 ft | 124 kts | 116° |
| 2026-05-06 21:16 | 43.30075 | -2.90967 | 126 ft | 82 kts | 117° |
| 2026-05-06 21:16 | 43.29933 | -2.90525 | 125 ft | 28 kts | 99° |
| 2026-05-06 21:17 | 43.29925 | -2.90365 | 130 ft | 10 kts | 86° |
| 2026-05-06 21:17 | 43.29929 | -2.90276 | 133 ft | 9 kts | 86° |
| 2026-05-06 21:17 | 43.29966 | -2.90222 | 132 ft | 8 kts | 6° |
| 2026-05-06 21:17 | 43.30003 | -2.90261 | 132 ft | 6 kts | 301° |
| 2026-05-06 21:18 | 43.30022 | -2.90311 | 132 ft | 6 kts | 297° |
| 2026-05-06 21:18 | 43.30039 | -2.90356 | 132 ft | 5 kts | 297° |
| 2026-05-06 21:18 | 43.30068 | -2.90412 | 132 ft | 8 kts | 326° |
| 2026-05-06 21:18 | 43.30106 | -2.90428 | 132 ft | 2 kts | 278° |
| 2026-05-06 21:19 | 43.30098 | -2.90519 | 132 ft | 19 kts | 290° |
| 2026-05-06 21:19 | 43.30203 | -2.90533 | 132 ft | 17 kts | 27° |
| 2026-05-06 21:19 | 43.30311 | -2.90582 | 132 ft | 18 kts | 326° |
| 2026-05-06 21:19 | 43.30355 | -2.90647 | 132 ft | 8 kts | 298° |
| 2026-05-06 21:20 | 43.30387 | -2.90660 | 132 ft | 4 kts | 5° |
| 2026-05-06 21:20 | 43.30409 | -2.90646 | 132 ft | 3 kts | 29° |
| 2026-05-06 21:20 | 43.30424 | -2.90636 | 132 ft | 0 kts | 26° |